createdAt,value
2023-10-09T00:00:35.477Z,5.48
2023-10-09T00:04:00.649Z,5.47
2023-10-09T00:06:43.360Z,5.46
2023-10-09T00:09:31.574Z,5.45
2023-10-09T00:12:13.688Z,5.43
2023-10-09T00:14:58.569Z,5.42
2023-10-09T00:17:40.658Z,5.40
2023-10-09T00:20:27.530Z,5.39
2023-10-09T00:23:14.001Z,5.38
2023-10-09T00:26:14.647Z,5.37
2023-10-09T00:29:13.580Z,5.36
2023-10-09T00:32:20.562Z,5.36
2023-10-09T00:35:29.605Z,5.35
2023-10-09T00:38:15.789Z,5.36
2023-10-09T00:41:24.566Z,5.36
2023-10-09T00:44:00.769Z,5.36
2023-10-09T00:46:50.538Z,5.36
2023-10-09T00:49:25.651Z,5.36
2023-10-09T00:52:24.578Z,5.36
2023-10-09T00:55:04.442Z,5.36
2023-10-09T00:58:08.524Z,5.36
2023-10-09T01:00:46.552Z,5.36
2023-10-09T01:03:35.675Z,5.35
2023-10-09T01:06:11.658Z,5.34
2023-10-09T01:09:08.928Z,5.34
2023-10-09T01:12:06.638Z,5.37
2023-10-09T01:14:44.434Z,5.44
2023-10-09T01:17:38.569Z,5.51
2023-10-09T01:20:28.715Z,5.59
2023-10-09T01:23:10.550Z,5.61
2023-10-09T01:25:54.017Z,5.61
2023-10-09T01:28:36.533Z,5.63
2023-10-09T01:31:22.107Z,5.62
2023-10-09T01:34:11.688Z,5.61
2023-10-09T01:36:50.324Z,5.60
2023-10-09T01:39:39.541Z,5.59
2023-10-09T01:42:26.282Z,5.56
2023-10-09T01:45:19.589Z,5.52
2023-10-09T01:48:04.585Z,5.46
2023-10-09T01:51:01.558Z,5.43
2023-10-09T01:54:04.567Z,5.40
2023-10-09T01:57:01.543Z,5.39
2023-10-09T02:00:05.208Z,5.38
2023-10-09T02:02:53.676Z,5.39
2023-10-09T02:05:34.638Z,5.38
2023-10-09T02:08:25.539Z,5.37
2023-10-09T02:11:03.379Z,5.36
2023-10-09T02:13:53.530Z,5.35
2023-10-09T02:16:42.822Z,5.33
2023-10-09T02:19:57.538Z,5.31
2023-10-09T02:22:35.800Z,5.30
2023-10-09T02:25:21.980Z,5.31
2023-10-09T02:28:25.522Z,5.36
2023-10-09T02:31:26.571Z,5.43
2023-10-09T02:34:28.543Z,5.48
2023-10-09T02:37:30.514Z,5.50
2023-10-09T02:40:31.529Z,5.51
2023-10-09T02:43:27.514Z,5.50
2023-10-09T02:46:26.544Z,5.50
2023-10-09T02:49:17.549Z,5.46
2023-10-09T02:52:09.555Z,5.44
2023-10-09T02:55:08.521Z,5.41
2023-10-09T02:58:12.528Z,5.39
2023-10-09T03:01:08.535Z,5.35
2023-10-09T03:04:09.640Z,5.33
2023-10-09T03:07:05.527Z,5.29
2023-10-09T03:10:01.502Z,5.26
2023-10-09T03:13:00.518Z,5.24
2023-10-09T03:15:56.513Z,5.23
2023-10-09T03:18:52.530Z,5.22
2023-10-09T03:21:41.540Z,5.20
2023-10-09T03:24:17.776Z,5.18
2023-10-09T03:27:06.639Z,5.17
2023-10-09T03:30:02.557Z,5.19
2023-10-09T03:33:00.642Z,5.24
2023-10-09T03:35:57.535Z,5.30
2023-10-09T03:38:53.495Z,5.36
2023-10-09T03:41:49.562Z,5.38
2023-10-09T03:44:52.584Z,5.40
2023-10-09T03:47:55.585Z,5.42
2023-10-09T03:50:53.550Z,5.44
2023-10-09T03:53:47.620Z,5.45
2023-10-09T03:56:29.608Z,5.46
2023-10-09T03:59:13.273Z,5.45
2023-10-09T04:01:58.934Z,5.44
2023-10-09T04:04:41.620Z,5.44
2023-10-09T04:07:23.619Z,5.42
2023-10-09T04:10:25.517Z,5.42
2023-10-09T04:13:11.881Z,5.40
2023-10-09T04:15:54.709Z,5.39
2023-10-09T04:18:39.706Z,5.38
2023-10-09T04:21:41.680Z,5.38
2023-10-09T04:24:30.550Z,5.36
2023-10-09T04:27:34.531Z,5.39
2023-10-09T04:30:31.587Z,5.46
2023-10-09T04:33:35.730Z,5.54
2023-10-09T04:36:34.543Z,5.60
2023-10-09T04:39:36.396Z,5.62
2023-10-09T04:42:43.508Z,5.63
2023-10-09T04:45:27.188Z,5.63
2023-10-09T04:48:15.505Z,5.62
2023-10-09T04:51:10.588Z,5.60
2023-10-09T04:54:19.537Z,5.58
2023-10-09T04:57:01.563Z,5.56
2023-10-09T04:59:48.794Z,5.54
2023-10-09T05:02:31.599Z,5.52
2023-10-09T05:05:17.787Z,5.51
2023-10-09T05:08:05.578Z,5.50
2023-10-09T05:11:00.154Z,5.49
2023-10-09T05:13:46.517Z,5.48
2023-10-09T05:16:34.621Z,5.49
2023-10-09T05:19:36.486Z,5.50
2023-10-09T05:22:31.418Z,5.50
2023-10-09T05:25:38.497Z,5.52
2023-10-09T05:28:32.515Z,5.54
2023-10-09T05:31:41.547Z,5.55
2023-10-09T05:34:21.264Z,5.57
2023-10-09T05:37:32.509Z,5.62
2023-10-09T05:40:19.748Z,5.70
2023-10-09T05:43:04.186Z,5.79
2023-10-09T05:46:04.540Z,5.86
2023-10-09T05:48:39.618Z,5.91
2023-10-09T05:51:34.737Z,5.93
2023-10-09T05:54:16.496Z,5.97
2023-10-09T05:57:16.569Z,5.99
2023-10-09T06:00:17.580Z,6.01
2023-10-09T06:03:24.914Z,6.02
2023-10-09T06:06:11.481Z,6.03
2023-10-09T06:09:12.358Z,6.04
2023-10-09T06:11:56.522Z,6.03
2023-10-09T06:14:39.566Z,6.04
2023-10-09T06:17:21.502Z,6.04
2023-10-09T06:20:23.530Z,6.04
2023-10-09T06:23:05.479Z,6.05
2023-10-09T06:25:52.801Z,6.06
2023-10-09T06:28:40.514Z,6.09
2023-10-09T06:31:52.207Z,6.12
2023-10-09T06:34:42.469Z,6.16
2023-10-09T06:37:24.540Z,6.20
2023-10-09T06:40:06.481Z,6.22
2023-10-09T06:42:52.528Z,6.26
2023-10-09T06:45:51.661Z,6.29
2023-10-09T06:48:36.472Z,6.37
2023-10-09T06:51:33.539Z,6.48
2023-10-09T06:54:11.002Z,6.60
2023-10-09T06:57:01.463Z,6.70
2023-10-09T06:59:51.503Z,6.77
2023-10-09T07:02:53.512Z,6.84
2023-10-09T07:06:07.513Z,6.90
2023-10-09T07:09:12.562Z,6.95
2023-10-09T07:12:10.525Z,7.00
2023-10-09T07:15:02.724Z,7.04
2023-10-09T07:17:53.597Z,7.09
2023-10-09T07:20:38.238Z,7.13
2023-10-09T07:23:29.479Z,7.16
2023-10-09T07:26:26.569Z,7.19
2023-10-09T07:29:24.459Z,7.20
2023-10-09T07:32:04.754Z,7.22
2023-10-09T07:35:02.497Z,7.24
2023-10-09T07:37:39.191Z,7.29
2023-10-09T07:40:39.529Z,7.32
2023-10-09T07:43:17.703Z,7.36
2023-10-09T07:46:07.533Z,7.39
2023-10-09T07:48:54.957Z,7.42
2023-10-09T07:51:43.524Z,7.44
2023-10-09T07:54:33.208Z,7.46
2023-10-09T07:57:24.536Z,7.55
2023-10-09T08:00:02.538Z,7.63
2023-10-09T08:02:51.479Z,7.74
2023-10-09T08:05:34.424Z,7.85
2023-10-09T08:08:41.567Z,7.96
2023-10-09T08:11:35.542Z,8.02
2023-10-09T08:14:23.496Z,8.02
2023-10-09T08:17:24.518Z,8.04
2023-10-09T08:20:12.842Z,8.03
2023-10-09T08:22:59.569Z,8.01
2023-10-09T08:25:42.496Z,7.98
2023-10-09T08:28:41.107Z,7.93
2023-10-09T08:31:53.466Z,7.85
2023-10-09T08:37:20.493Z,7.81
2023-10-09T08:39:57.291Z,7.81
2023-10-09T08:42:46.433Z,7.82
2023-10-09T08:45:24.124Z,7.84
2023-10-09T08:48:17.063Z,7.90
2023-10-09T08:50:55.541Z,7.98
2023-10-09T08:53:50.458Z,8.05
2023-10-09T08:56:26.750Z,8.11
2023-10-09T08:59:15.555Z,8.16
2023-10-09T09:01:53.291Z,8.17
2023-10-09T09:04:47.181Z,8.19
2023-10-09T09:07:33.590Z,8.22
2023-10-09T09:10:19.000Z,8.23
2023-10-09T09:13:15.508Z,8.21
2023-10-09T09:15:58.768Z,8.22
2023-10-09T09:19:04.442Z,8.19
2023-10-09T09:21:50.174Z,8.16
2023-10-09T09:24:34.733Z,8.10
2023-10-09T09:27:11.733Z,8.06
2023-10-09T09:30:01.441Z,8.05
2023-10-09T09:33:17.455Z,8.09
2023-10-09T09:36:20.448Z,8.18
2023-10-09T09:39:26.632Z,8.22
2023-10-09T09:42:23.505Z,8.27
2023-10-09T09:45:20.502Z,8.34
2023-10-09T09:48:22.532Z,8.40
2023-10-09T09:51:18.499Z,8.48
2023-10-09T09:54:07.526Z,8.53
2023-10-09T09:56:44.502Z,8.59
2023-10-09T09:59:30.362Z,8.60
2023-10-09T10:02:16.581Z,8.59
2023-10-09T10:04:52.554Z,8.61
2023-10-09T10:07:31.495Z,8.67
2023-10-09T10:10:55.472Z,8.75
2023-10-09T10:13:50.161Z,8.85
2023-10-09T10:16:25.799Z,8.90
2023-10-09T10:19:29.644Z,8.89
2023-10-09T10:22:37.447Z,8.85
2023-10-09T10:25:19.588Z,8.88
2023-10-09T10:28:46.501Z,8.90
2023-10-09T10:32:08.524Z,8.91
2023-10-09T10:35:04.444Z,8.91
2023-10-09T10:38:08.453Z,8.94
2023-10-09T10:41:08.457Z,8.97
2023-10-09T10:44:07.558Z,8.99
2023-10-09T10:47:03.718Z,9.01
2023-10-09T10:49:52.451Z,9.02
2023-10-09T10:52:42.988Z,9.06
2023-10-09T10:55:37.586Z,9.10
2023-10-09T10:58:48.299Z,9.14
2023-10-09T11:02:00.620Z,9.18
2023-10-09T11:04:37.684Z,9.25
2023-10-09T11:07:32.452Z,9.33
2023-10-09T11:10:07.698Z,9.42
2023-10-09T11:12:59.487Z,9.49
2023-10-09T11:15:45.958Z,9.54
2023-10-09T11:18:35.548Z,9.49
2023-10-09T11:21:17.504Z,9.41
2023-10-09T11:23:59.632Z,9.37
2023-10-09T11:26:41.845Z,9.38
2023-10-09T11:29:26.521Z,9.41
2023-10-09T11:32:12.588Z,9.43
2023-10-09T11:35:01.487Z,9.49
2023-10-09T11:37:46.388Z,9.52
2023-10-09T11:41:01.448Z,9.52
2023-10-09T11:43:55.622Z,9.51
2023-10-09T11:47:04.527Z,9.51
2023-10-09T11:50:02.849Z,9.52
2023-10-09T11:53:16.448Z,9.56
2023-10-09T11:55:59.802Z,9.59
2023-10-09T11:58:41.608Z,9.62
2023-10-09T12:01:24.569Z,9.59
2023-10-09T12:04:06.408Z,9.57
2023-10-09T12:06:50.725Z,9.61
2023-10-09T12:09:32.541Z,9.65
2023-10-09T12:12:15.469Z,9.65
2023-10-09T12:14:59.504Z,9.67
2023-10-09T12:17:45.774Z,9.69
2023-10-09T12:20:42.443Z,9.70
2023-10-09T12:23:17.579Z,9.74
2023-10-09T12:26:07.500Z,9.77
2023-10-09T12:28:47.584Z,9.85
2023-10-09T12:31:41.470Z,9.98
2023-10-09T12:34:18.055Z,10.07
2023-10-09T12:37:09.564Z,10.17
2023-10-09T12:39:44.523Z,10.19
2023-10-09T12:42:35.413Z,10.21
2023-10-09T12:45:19.653Z,10.22
2023-10-09T12:48:17.499Z,10.25
2023-10-09T12:51:14.434Z,10.28
2023-10-09T12:54:10.529Z,10.36
2023-10-09T12:57:07.450Z,10.47
2023-10-09T13:00:03.444Z,10.56
2023-10-09T13:02:59.586Z,10.64
2023-10-09T13:06:06.418Z,10.68
2023-10-09T13:09:07.430Z,10.71
2023-10-09T13:12:07.411Z,10.71
2023-10-09T13:15:03.482Z,10.71
2023-10-09T13:17:52.588Z,10.73
2023-10-09T13:20:29.020Z,10.75
2023-10-09T13:23:22.421Z,10.74
2023-10-09T13:25:58.624Z,10.73
2023-10-09T13:28:54.440Z,10.71
2023-10-09T13:31:54.472Z,10.70
2023-10-09T13:34:53.439Z,10.70
2023-10-09T13:37:38.001Z,10.70
2023-10-09T13:40:34.479Z,10.68
2023-10-09T13:43:18.183Z,10.63
2023-10-09T13:46:11.412Z,10.55
2023-10-09T13:48:47.742Z,10.47
2023-10-09T13:51:36.429Z,10.42
2023-10-09T13:54:35.651Z,10.40
2023-10-09T13:57:17.471Z,10.38
2023-10-09T13:59:59.388Z,10.37
2023-10-09T14:02:42.330Z,10.35
2023-10-09T14:05:24.422Z,10.33
2023-10-09T14:08:10.136Z,10.29
2023-10-09T14:10:56.456Z,10.28
2023-10-09T14:13:38.561Z,10.27
2023-10-09T14:16:31.661Z,10.29
2023-10-09T14:19:14.869Z,10.30
2023-10-09T14:21:59.876Z,10.30
2023-10-09T14:24:45.495Z,10.30
2023-10-09T14:27:27.384Z,10.30
2023-10-09T14:30:30.410Z,10.31
2023-10-09T14:33:30.427Z,10.32
2023-10-09T14:36:26.410Z,10.31
2023-10-09T14:39:26.497Z,10.30
2023-10-09T14:42:23.424Z,10.28
2023-10-09T14:45:15.480Z,10.25
2023-10-09T14:47:50.519Z,10.24
2023-10-09T14:50:39.582Z,10.22
2023-10-09T14:53:16.488Z,10.21
2023-10-09T14:56:08.589Z,10.19
2023-10-09T14:58:46.078Z,10.19
2023-10-09T15:01:48.489Z,10.17
2023-10-09T15:04:45.446Z,10.15
2023-10-09T15:07:42.666Z,10.14
2023-10-09T15:10:39.441Z,10.10
2023-10-09T15:13:28.375Z,10.08
2023-10-09T15:16:05.038Z,10.05
2023-10-09T15:18:49.658Z,10.02
2023-10-09T15:21:35.413Z,9.99
2023-10-09T15:24:16.253Z,9.95
2023-10-09T15:26:53.684Z,9.92
2023-10-09T15:29:50.394Z,9.88
2023-10-09T15:32:46.510Z,9.83
2023-10-09T15:35:42.404Z,9.79
2023-10-09T15:38:38.390Z,9.73
2023-10-09T15:41:37.417Z,9.68
2023-10-09T15:44:28.317Z,9.63
2023-10-09T15:47:04.584Z,9.58
2023-10-09T15:49:53.424Z,9.55
2023-10-09T15:52:28.895Z,9.49
2023-10-09T15:55:21.389Z,9.44
2023-10-09T15:57:56.494Z,9.39
2023-10-09T16:00:45.403Z,9.33
2023-10-09T16:03:20.581Z,9.31
2023-10-09T16:06:02.639Z,9.32
2023-10-09T16:08:49.371Z,9.31
2023-10-09T16:11:33.428Z,9.31
2023-10-09T16:14:11.348Z,9.29
2023-10-09T16:17:03.518Z,9.24
2023-10-09T16:19:42.049Z,9.20
2023-10-09T16:22:32.355Z,9.15
2023-10-09T16:25:11.097Z,9.09
2023-10-09T16:28:00.388Z,9.05
2023-10-09T16:30:37.258Z,9.00
2023-10-09T16:33:27.438Z,8.93
2023-10-09T16:36:02.613Z,8.86
2023-10-09T16:38:51.423Z,8.79
2023-10-09T16:41:34.421Z,8.76
2023-10-09T16:44:18.659Z,8.70
2023-10-09T16:47:02.439Z,8.64
2023-10-09T16:49:48.437Z,8.57
2023-10-09T16:52:31.386Z,8.50
2023-10-09T16:55:19.574Z,8.43
2023-10-09T16:58:03.935Z,8.40
2023-10-09T17:00:47.946Z,8.42
2023-10-09T17:03:35.766Z,8.47
2023-10-09T17:06:20.567Z,8.51
2023-10-09T17:09:04.446Z,8.54
2023-10-09T17:11:53.265Z,8.58
2023-10-09T17:14:42.391Z,8.59
2023-10-09T17:17:22.043Z,8.60
2023-10-09T17:20:17.471Z,8.60
2023-10-09T17:22:53.519Z,8.59
2023-10-09T17:25:42.420Z,8.56
2023-10-09T17:28:22.480Z,8.53
2023-10-09T17:31:18.466Z,8.49
2023-10-09T17:34:15.618Z,8.45
2023-10-09T17:37:05.405Z,8.39
2023-10-09T17:39:40.605Z,8.34
2023-10-09T17:42:23.038Z,8.28
2023-10-09T17:45:05.483Z,8.25
2023-10-09T17:47:42.287Z,8.25
2023-10-09T17:50:17.750Z,8.27
2023-10-09T17:53:02.507Z,8.27
2023-10-09T17:55:38.495Z,8.27
2023-10-09T17:58:14.324Z,8.25
2023-10-09T18:00:59.612Z,8.22
2023-10-09T18:03:49.545Z,8.20
2023-10-09T18:06:24.605Z,8.16
2023-10-09T18:09:23.400Z,8.12
2023-10-09T18:11:59.178Z,8.08
2023-10-09T18:14:48.368Z,8.03
2023-10-09T18:17:24.454Z,7.98
2023-10-09T18:20:13.420Z,7.94
2023-10-09T18:22:49.922Z,7.89
2023-10-09T18:25:38.364Z,7.83
2023-10-09T18:28:15.356Z,7.81
2023-10-09T18:31:04.447Z,7.82
2023-10-09T18:34:00.352Z,7.85
2023-10-09T18:36:36.915Z,7.87
2023-10-09T18:39:30.359Z,7.87
2023-10-09T18:42:07.995Z,7.86
2023-10-09T18:44:56.393Z,7.84
2023-10-09T18:47:39.636Z,7.82
2023-10-09T18:50:24.371Z,7.77
2023-10-09T18:53:20.391Z,7.73
2023-10-09T18:56:16.450Z,7.69
2023-10-09T18:59:15.819Z,7.65
2023-10-09T19:02:12.508Z,7.60
2023-10-09T19:05:01.441Z,7.55
2023-10-09T19:07:40.595Z,7.54
2023-10-09T19:10:33.360Z,7.55
2023-10-09T19:13:11.254Z,7.57
2023-10-09T19:16:00.388Z,7.57
2023-10-09T19:18:39.392Z,7.55
2023-10-09T19:21:30.356Z,7.52
2023-10-09T19:24:14.712Z,7.47
2023-10-09T19:27:04.346Z,7.42
2023-10-09T19:29:39.510Z,7.37
2023-10-09T19:32:29.646Z,7.32
2023-10-09T19:35:12.394Z,7.25
2023-10-09T19:38:08.398Z,7.18
2023-10-09T19:41:04.462Z,7.11
2023-10-09T19:44:01.359Z,7.05
2023-10-09T19:46:57.460Z,6.99
2023-10-09T19:49:53.341Z,6.98
2023-10-09T19:52:49.401Z,6.98
2023-10-09T19:55:45.399Z,6.97
2023-10-09T19:58:41.342Z,6.94
2023-10-09T20:01:37.376Z,6.90
2023-10-09T20:04:33.340Z,6.88
2023-10-09T20:07:23.616Z,6.85
2023-10-09T20:10:02.640Z,6.81
2023-10-09T20:12:44.887Z,6.80
2023-10-09T20:15:33.350Z,6.76
2023-10-09T20:18:09.382Z,6.72
2023-10-09T20:20:58.422Z,6.66
2023-10-09T20:23:34.791Z,6.63
2023-10-09T20:26:24.559Z,6.61
2023-10-09T20:29:02.163Z,6.62
2023-10-09T20:31:52.457Z,6.60
2023-10-09T20:34:34.346Z,6.57
2023-10-09T20:37:17.852Z,6.55
2023-10-09T20:40:00.530Z,6.52
2023-10-09T20:42:42.390Z,6.48
2023-10-09T20:45:29.336Z,6.45
2023-10-09T20:48:11.500Z,6.42
2023-10-09T20:50:53.356Z,6.38
2023-10-09T20:53:35.706Z,6.33
2023-10-09T20:56:18.458Z,6.31
2023-10-09T20:59:02.165Z,6.32
2023-10-09T21:01:51.471Z,6.34
2023-10-09T21:04:26.465Z,6.40
2023-10-09T21:07:15.457Z,6.41
2023-10-09T21:09:51.420Z,6.39
2023-10-09T21:12:40.335Z,6.35
2023-10-09T21:15:17.487Z,6.29
2023-10-09T21:18:07.922Z,6.24
2023-10-09T21:20:45.465Z,6.19
2023-10-09T21:23:34.306Z,6.14
2023-10-09T21:26:10.475Z,6.10
2023-10-09T21:28:59.332Z,6.06
2023-10-09T21:31:35.667Z,6.01
2023-10-09T21:34:24.408Z,6.01
2023-10-09T21:36:59.376Z,6.04
2023-10-09T21:39:48.509Z,6.06
2023-10-09T21:42:24.398Z,6.09
2023-10-09T21:45:15.341Z,6.09
2023-10-09T21:47:56.436Z,6.09
2023-10-09T21:50:46.340Z,6.09
2023-10-09T21:53:21.431Z,6.08
2023-10-09T21:56:15.753Z,6.06
2023-10-09T21:58:53.843Z,6.05
2023-10-09T22:01:35.578Z,6.03
2023-10-09T22:04:19.385Z,6.00
2023-10-09T22:06:54.415Z,5.99
2023-10-09T22:09:36.309Z,5.98
2023-10-09T22:12:18.408Z,6.03
2023-10-09T22:15:00.324Z,6.06
2023-10-09T22:17:45.433Z,6.10
2023-10-09T22:20:28.363Z,6.11
2023-10-09T22:23:15.096Z,6.11
2023-10-09T22:26:08.505Z,6.09
2023-10-09T22:28:52.022Z,6.07
2023-10-09T22:31:36.402Z,6.06
2023-10-09T22:34:21.090Z,6.04
2023-10-09T22:37:03.341Z,6.03
2023-10-09T22:39:54.308Z,6.02
2023-10-09T22:42:30.371Z,6.03
2023-10-09T22:45:22.314Z,6.07
2023-10-09T22:47:59.619Z,6.14
2023-10-09T22:50:52.312Z,6.19
2023-10-09T22:53:40.667Z,6.23
2023-10-09T22:56:29.376Z,6.25
2023-10-09T22:59:21.520Z,6.26
2023-10-09T23:02:05.005Z,6.25
2023-10-09T23:04:46.335Z,6.24
2023-10-09T23:07:28.303Z,6.20
2023-10-09T23:10:16.279Z,6.17
2023-10-09T23:13:22.311Z,6.12
2023-10-09T23:16:17.657Z,6.11
2023-10-09T23:19:15.574Z,6.13
2023-10-09T23:22:13.824Z,6.16
2023-10-09T23:25:16.330Z,6.18
2023-10-09T23:27:51.991Z,6.17
2023-10-09T23:30:47.325Z,6.14
2023-10-09T23:33:38.329Z,6.09
2023-10-09T23:36:30.055Z,6.02
2023-10-09T23:39:20.301Z,5.94
2023-10-09T23:42:03.753Z,5.88
2023-10-09T23:44:46.302Z,5.81
2023-10-09T23:47:32.944Z,5.74
2023-10-09T23:50:23.384Z,5.66
2023-10-09T23:53:05.383Z,5.58
2023-10-09T23:55:50.684Z,5.52
2023-10-09T23:58:37.263Z,5.51
